sensor_id;sensor_type;location;lat;lon;timestamp;pressure;altitude;pressure_sealevel;temperature;humidity
62725;BME280;49026;52.600;4.694;2023-09-19T00:00:57;100550.13;;;14.56;76.95
62725;BME280;49026;52.600;4.694;2023-09-19T00:03:25;100576.56;;;14.56;77.23
62725;BME280;49026;52.600;4.694;2023-09-19T00:05:51;100570.63;;;14.53;75.22
62725;BME280;49026;52.600;4.694;2023-09-19T00:08:16;100563.66;;;14.52;74.91
62725;BME280;49026;52.600;4.694;2023-09-19T00:10:42;100571.28;;;14.56;74.54
62725;BME280;49026;52.600;4.694;2023-09-19T00:13:08;100562.41;;;14.57;72.87
62725;BME280;49026;52.600;4.694;2023-09-19T00:15:44;100581.09;;;14.54;74.09
62725;BME280;49026;52.600;4.694;2023-09-19T00:18:13;100576.88;;;14.52;74.32
62725;BME280;49026;52.600;4.694;2023-09-19T00:20:41;100576.56;;;14.56;74.74
62725;BME280;49026;52.600;4.694;2023-09-19T00:23:07;100585.66;;;14.67;74.20
62725;BME280;49026;52.600;4.694;2023-09-19T00:25:36;100588.31;;;14.67;73.59
62725;BME280;49026;52.600;4.694;2023-09-19T00:28:02;100592.75;;;14.66;73.94
62725;BME280;49026;52.600;4.694;2023-09-19T00:30:28;100595.56;;;14.63;73.61
62725;BME280;49026;52.600;4.694;2023-09-19T00:32:56;100578.97;;;14.61;73.71
62725;BME280;49026;52.600;4.694;2023-09-19T00:35:22;100598.31;;;14.61;73.37
62725;BME280;49026;52.600;4.694;2023-09-19T00:37:53;100604.56;;;14.60;73.45
62725;BME280;49026;52.600;4.694;2023-09-19T00:40:19;100595.75;;;14.60;73.40
62725;BME280;49026;52.600;4.694;2023-09-19T00:42:46;100584.59;;;14.55;73.24
62725;BME280;49026;52.600;4.694;2023-09-19T00:45:13;100591.59;;;14.56;73.42
62725;BME280;49026;52.600;4.694;2023-09-19T00:47:46;100582.53;;;14.60;72.62
62725;BME280;49026;52.600;4.694;2023-09-19T00:50:17;100602.16;;;14.56;73.28
62725;BME280;49026;52.600;4.694;2023-09-19T00:52:43;100596.63;;;14.60;72.02
62725;BME280;49026;52.600;4.694;2023-09-19T00:55:10;100588.78;;;14.59;71.96
62725;BME280;49026;52.600;4.694;2023-09-19T00:57:36;100589.69;;;14.58;71.98
62725;BME280;49026;52.600;4.694;2023-09-19T01:00:06;100603.69;;;14.60;72.73
62725;BME280;49026;52.600;4.694;2023-09-19T01:02:33;100601.22;;;14.57;72.76
62725;BME280;49026;52.600;4.694;2023-09-19T01:05:01;100586.81;;;14.62;71.90
62725;BME280;49026;52.600;4.694;2023-09-19T01:07:30;100606.63;;;14.70;71.96
62725;BME280;49026;52.600;4.694;2023-09-19T01:09:57;100588.69;;;14.75;73.04
62725;BME280;49026;52.600;4.694;2023-09-19T01:12:47;100595.41;;;14.80;73.44
62725;BME280;49026;52.600;4.694;2023-09-19T01:20:55;100603.59;;;15.05;73.40
62725;BME280;49026;52.600;4.694;2023-09-19T01:23:59;100594.72;;;15.06;73.14
62725;BME280;49026;52.600;4.694;2023-09-19T01:29:30;100617.50;;;15.08;73.04
62725;BME280;49026;52.600;4.694;2023-09-19T01:32:03;100607.97;;;15.06;73.16
62725;BME280;49026;52.600;4.694;2023-09-19T01:34:47;100612.50;;;15.04;72.83
62725;BME280;49026;52.600;4.694;2023-09-19T01:37:13;100604.66;;;15.02;71.58
62725;BME280;49026;52.600;4.694;2023-09-19T01:39:40;100623.38;;;14.99;71.22
62725;BME280;49026;52.600;4.694;2023-09-19T01:42:28;100605.88;;;14.96;71.31
62725;BME280;49026;52.600;4.694;2023-09-19T01:47:37;100612.88;;;14.97;69.92
62725;BME280;49026;52.600;4.694;2023-09-19T01:50:32;100624.13;;;15.01;69.07
62725;BME280;49026;52.600;4.694;2023-09-19T01:53:07;100620.72;;;14.99;69.60
62725;BME280;49026;52.600;4.694;2023-09-19T01:55:43;100628.75;;;14.97;69.43
62725;BME280;49026;52.600;4.694;2023-09-19T01:58:32;100621.09;;;14.93;69.99
62725;BME280;49026;52.600;4.694;2023-09-19T02:01:00;100612.59;;;14.88;70.54
62725;BME280;49026;52.600;4.694;2023-09-19T02:03:28;100616.38;;;14.84;70.91
62725;BME280;49026;52.600;4.694;2023-09-19T02:05:54;100619.78;;;14.86;70.69
62725;BME280;49026;52.600;4.694;2023-09-19T02:08:20;100600.31;;;14.87;70.71
62725;BME280;49026;52.600;4.694;2023-09-19T02:10:49;100602.00;;;14.88;70.75
62725;BME280;49026;52.600;4.694;2023-09-19T02:13:19;100602.56;;;14.93;70.52
62725;BME280;49026;52.600;4.694;2023-09-19T02:15:45;100607.31;;;14.88;70.94
62725;BME280;49026;52.600;4.694;2023-09-19T02:18:13;100605.41;;;14.90;71.26
62725;BME280;49026;52.600;4.694;2023-09-19T02:20:39;100619.41;;;14.92;71.33
62725;BME280;49026;52.600;4.694;2023-09-19T02:23:05;100615.63;;;14.96;71.03
62725;BME280;49026;52.600;4.694;2023-09-19T02:25:34;100642.63;;;15.01;71.94
62725;BME280;49026;52.600;4.694;2023-09-19T02:28:00;100624.78;;;15.05;71.39
62725;BME280;49026;52.600;4.694;2023-09-19T02:30:28;100630.34;;;15.14;69.55
62725;BME280;49026;52.600;4.694;2023-09-19T02:32:53;100635.44;;;15.17;70.70
62725;BME280;49026;52.600;4.694;2023-09-19T02:35:21;100616.72;;;15.21;70.47
62725;BME280;49026;52.600;4.694;2023-09-19T02:37:50;100621.53;;;15.28;70.27
62725;BME280;49026;52.600;4.694;2023-09-19T02:40:15;100627.50;;;15.32;70.19
62725;BME280;49026;52.600;4.694;2023-09-19T02:42:47;100637.03;;;15.34;71.00
62725;BME280;49026;52.600;4.694;2023-09-19T02:45:15;100606.50;;;15.29;70.80
62725;BME280;49026;52.600;4.694;2023-09-19T02:47:41;100615.72;;;15.09;71.63
62725;BME280;49026;52.600;4.694;2023-09-19T02:50:09;100605.03;;;14.96;72.13
62725;BME280;49026;52.600;4.694;2023-09-19T02:52:40;100606.28;;;14.90;72.73
62725;BME280;49026;52.600;4.694;2023-09-19T02:55:08;100604.47;;;14.91;72.79
62725;BME280;49026;52.600;4.694;2023-09-19T02:57:36;100586.78;;;14.91;72.90
62725;BME280;49026;52.600;4.694;2023-09-19T03:00:07;100585.75;;;14.94;72.38
62725;BME280;49026;52.600;4.694;2023-09-19T03:02:36;100594.44;;;14.96;72.44
62725;BME280;49026;52.600;4.694;2023-09-19T03:05:01;100609.94;;;15.02;72.20
62725;BME280;49026;52.600;4.694;2023-09-19T03:07:29;100622.03;;;15.06;72.08
62725;BME280;49026;52.600;4.694;2023-09-19T03:09:57;100606.25;;;15.05;72.13
62725;BME280;49026;52.600;4.694;2023-09-19T03:12:22;100613.34;;;15.04;71.83
62725;BME280;49026;52.600;4.694;2023-09-19T03:14:48;100618.81;;;15.01;71.81
62725;BME280;49026;52.600;4.694;2023-09-19T03:17:13;100618.16;;;14.97;71.98
62725;BME280;49026;52.600;4.694;2023-09-19T03:19:40;100627.81;;;14.98;71.38
62725;BME280;49026;52.600;4.694;2023-09-19T03:22:05;100617.41;;;14.95;71.58
62725;BME280;49026;52.600;4.694;2023-09-19T03:24:31;100615.81;;;14.93;71.48
62725;BME280;49026;52.600;4.694;2023-09-19T03:26:58;100607.88;;;14.93;71.61
62725;BME280;49026;52.600;4.694;2023-09-19T03:29:23;100629.78;;;14.95;71.62
62725;BME280;49026;52.600;4.694;2023-09-19T03:31:50;100613.63;;;14.99;71.22
62725;BME280;49026;52.600;4.694;2023-09-19T03:34:15;100621.38;;;15.03;71.47
62725;BME280;49026;52.600;4.694;2023-09-19T03:36:41;100634.25;;;15.09;71.49
62725;BME280;49026;52.600;4.694;2023-09-19T03:39:08;100612.75;;;15.13;71.11
62725;BME280;49026;52.600;4.694;2023-09-19T03:41:34;100630.53;;;15.11;71.33
62725;BME280;49026;52.600;4.694;2023-09-19T03:44:01;100633.19;;;15.11;71.54
62725;BME280;49026;52.600;4.694;2023-09-19T03:46:27;100635.16;;;15.08;71.76
62725;BME280;49026;52.600;4.694;2023-09-19T03:49:00;100654.94;;;15.02;71.06
62725;BME280;49026;52.600;4.694;2023-09-19T03:51:28;100648.03;;;14.99;70.14
62725;BME280;49026;52.600;4.694;2023-09-19T03:53:53;100662.31;;;14.97;70.55
62725;BME280;49026;52.600;4.694;2023-09-19T03:56:18;100667.38;;;15.00;70.15
62725;BME280;49026;52.600;4.694;2023-09-19T03:58:43;100664.75;;;15.00;70.16
62725;BME280;49026;52.600;4.694;2023-09-19T04:01:09;100671.00;;;14.99;70.32
62725;BME280;49026;52.600;4.694;2023-09-19T04:03:35;100665.53;;;15.02;70.08
62725;BME280;49026;52.600;4.694;2023-09-19T04:06:14;100664.56;;;15.03;69.92
62725;BME280;49026;52.600;4.694;2023-09-19T04:08:40;100664.75;;;15.00;69.44
62725;BME280;49026;52.600;4.694;2023-09-19T04:11:10;100672.09;;;14.95;69.53
62725;BME280;49026;52.600;4.694;2023-09-19T04:13:36;100675.34;;;14.86;69.48
62725;BME280;49026;52.600;4.694;2023-09-19T04:16:02;100674.75;;;14.80;69.67
62725;BME280;49026;52.600;4.694;2023-09-19T04:18:29;100675.69;;;14.79;69.91
62725;BME280;49026;52.600;4.694;2023-09-19T04:20:57;100664.38;;;14.77;69.90
62725;BME280;49026;52.600;4.694;2023-09-19T04:23:25;100669.66;;;14.77;69.91
62725;BME280;49026;52.600;4.694;2023-09-19T04:25:50;100667.00;;;14.77;69.96
62725;BME280;49026;52.600;4.694;2023-09-19T04:28:18;100673.06;;;14.79;69.84
62725;BME280;49026;52.600;4.694;2023-09-19T04:30:44;100663.78;;;14.87;69.49
62725;BME280;49026;52.600;4.694;2023-09-19T04:33:09;100669.69;;;14.92;68.64
62725;BME280;49026;52.600;4.694;2023-09-19T04:35:34;100660.22;;;14.88;69.21
62725;BME280;49026;52.600;4.694;2023-09-19T04:38:00;100671.72;;;14.87;68.77
62725;BME280;49026;52.600;4.694;2023-09-19T04:40:26;100660.22;;;14.88;68.69
62725;BME280;49026;52.600;4.694;2023-09-19T04:42:56;100653.03;;;14.90;68.59
62725;BME280;49026;52.600;4.694;2023-09-19T04:45:22;100660.22;;;14.88;69.27
62725;BME280;49026;52.600;4.694;2023-09-19T04:47:48;100647.25;;;14.83;69.65
62725;BME280;49026;52.600;4.694;2023-09-19T04:50:13;100661.34;;;14.84;69.73
62725;BME280;49026;52.600;4.694;2023-09-19T04:52:42;100673.44;;;14.88;69.11
62725;BME280;49026;52.600;4.694;2023-09-19T04:55:14;100664.25;;;14.93;68.78
62725;BME280;49026;52.600;4.694;2023-09-19T04:57:49;100640.56;;;14.92;69.13
62725;BME280;49026;52.600;4.694;2023-09-19T05:00:17;100657.19;;;14.94;69.35
62725;BME280;49026;52.600;4.694;2023-09-19T05:02:45;100645.47;;;14.98;69.40
62725;BME280;49026;52.600;4.694;2023-09-19T05:05:11;100666.28;;;15.04;68.88
62725;BME280;49026;52.600;4.694;2023-09-19T05:07:41;100667.84;;;15.07;68.22
62725;BME280;49026;52.600;4.694;2023-09-19T05:10:09;100673.28;;;15.05;68.32
62725;BME280;49026;52.600;4.694;2023-09-19T05:12:35;100666.34;;;15.03;67.84
62725;BME280;49026;52.600;4.694;2023-09-19T05:15:05;100670.25;;;14.97;67.51
62725;BME280;49026;52.600;4.694;2023-09-19T05:17:32;100667.59;;;14.97;67.15
62725;BME280;49026;52.600;4.694;2023-09-19T05:19:59;100662.31;;;14.97;67.99
62725;BME280;49026;52.600;4.694;2023-09-19T05:22:31;100662.41;;;14.95;68.16
62725;BME280;49026;52.600;4.694;2023-09-19T05:25:01;100683.47;;;14.97;68.70
62725;BME280;49026;52.600;4.694;2023-09-19T05:27:29;100683.16;;;15.01;68.71
62725;BME280;49026;52.600;4.694;2023-09-19T05:29:55;100684.59;;;15.07;69.30
62725;BME280;49026;52.600;4.694;2023-09-19T05:32:23;100673.84;;;15.10;69.35
62725;BME280;49026;52.600;4.694;2023-09-19T05:34:48;100671.19;;;15.10;69.65
62725;BME280;49026;52.600;4.694;2023-09-19T05:37:14;100686.09;;;15.11;69.41
62725;BME280;49026;52.600;4.694;2023-09-19T05:39:42;100685.00;;;15.15;69.31
62725;BME280;49026;52.600;4.694;2023-09-19T05:42:08;100673.75;;;15.12;69.46
62725;BME280;49026;52.600;4.694;2023-09-19T05:44:34;100683.28;;;15.14;69.73
62725;BME280;49026;52.600;4.694;2023-09-19T05:47:00;100669.94;;;15.16;68.82
62725;BME280;49026;52.600;4.694;2023-09-19T05:49:25;100692.84;;;15.17;68.57
62725;BME280;49026;52.600;4.694;2023-09-19T05:51:54;100688.38;;;15.17;68.22
62725;BME280;49026;52.600;4.694;2023-09-19T05:54:24;100670.88;;;15.15;67.79
62725;BME280;49026;52.600;4.694;2023-09-19T05:56:49;100688.66;;;15.13;68.54
62725;BME280;49026;52.600;4.694;2023-09-19T05:59:18;100678.91;;;15.13;68.58
62725;BME280;49026;52.600;4.694;2023-09-19T06:01:43;100677.78;;;15.17;68.56
62725;BME280;49026;52.600;4.694;2023-09-19T06:04:12;100681.56;;;15.28;68.45
62725;BME280;49026;52.600;4.694;2023-09-19T06:06:38;100669.84;;;15.32;68.70
62725;BME280;49026;52.600;4.694;2023-09-19T06:09:07;100668.59;;;15.37;68.69
62725;BME280;49026;52.600;4.694;2023-09-19T06:11:35;100661.22;;;15.43;68.27
62725;BME280;49026;52.600;4.694;2023-09-19T06:14:04;100672.47;;;15.46;68.07
62725;BME280;49026;52.600;4.694;2023-09-19T06:16:30;100643.16;;;15.49;67.94
62725;BME280;49026;52.600;4.694;2023-09-19T06:18:57;100656.84;;;15.56;66.61
62725;BME280;49026;52.600;4.694;2023-09-19T06:21:26;100673.47;;;15.58;66.67
62725;BME280;49026;52.600;4.694;2023-09-19T06:23:52;100678.50;;;15.63;67.29
62725;BME280;49026;52.600;4.694;2023-09-19T06:26:19;100673.09;;;15.64;67.66
62725;BME280;49026;52.600;4.694;2023-09-19T06:28:44;100679.25;;;15.65;67.79
62725;BME280;49026;52.600;4.694;2023-09-19T06:31:15;100668.53;;;15.66;68.50
62725;BME280;49026;52.600;4.694;2023-09-19T06:33:40;100682.44;;;15.70;68.30
62725;BME280;49026;52.600;4.694;2023-09-19T06:36:06;100681.16;;;15.77;68.31
62725;BME280;49026;52.600;4.694;2023-09-19T06:38:32;100686.78;;;15.85;67.92
62725;BME280;49026;52.600;4.694;2023-09-19T06:41:02;100676.53;;;15.93;67.37
62725;BME280;49026;52.600;4.694;2023-09-19T06:43:34;100690.47;;;15.97;67.52
62725;BME280;49026;52.600;4.694;2023-09-19T06:46:00;100686.00;;;15.98;68.05
62725;BME280;49026;52.600;4.694;2023-09-19T06:48:26;100697.97;;;16.03;67.96
62725;BME280;49026;52.600;4.694;2023-09-19T06:50:54;100702.06;;;16.09;67.54
62725;BME280;49026;52.600;4.694;2023-09-19T06:53:20;100696.31;;;16.15;67.04
62725;BME280;49026;52.600;4.694;2023-09-19T06:55:45;100691.47;;;16.22;67.16
62725;BME280;49026;52.600;4.694;2023-09-19T06:58:15;100712.09;;;16.31;65.84
62725;BME280;49026;52.600;4.694;2023-09-19T07:00:44;100702.75;;;16.38;66.79
62725;BME280;49026;52.600;4.694;2023-09-19T07:03:13;100696.22;;;16.44;66.67
62725;BME280;49026;52.600;4.694;2023-09-19T07:05:39;100719.75;;;16.48;66.50
62725;BME280;49026;52.600;4.694;2023-09-19T07:08:06;100720.28;;;16.54;66.14
62725;BME280;49026;52.600;4.694;2023-09-19T07:10:32;100727.94;;;16.58;66.94
62725;BME280;49026;52.600;4.694;2023-09-19T07:15:29;100728.28;;;16.66;66.23
62725;BME280;49026;52.600;4.694;2023-09-19T07:17:56;100720.13;;;16.70;66.05
62725;BME280;49026;52.600;4.694;2023-09-19T07:20:22;100714.06;;;16.67;66.13
62725;BME280;49026;52.600;4.694;2023-09-19T07:22:50;100724.91;;;16.64;66.26
62725;BME280;49026;52.600;4.694;2023-09-19T07:25:16;100716.94;;;16.64;65.74
62725;BME280;49026;52.600;4.694;2023-09-19T07:27:42;100696.16;;;16.71;66.72
62725;BME280;49026;52.600;4.694;2023-09-19T07:30:09;100729.16;;;16.80;65.61
62725;BME280;49026;52.600;4.694;2023-09-19T07:32:35;100722.59;;;16.85;66.09
62725;BME280;49026;52.600;4.694;2023-09-19T07:35:02;100725.69;;;16.92;65.18
62725;BME280;49026;52.600;4.694;2023-09-19T07:37:29;100722.50;;;17.00;65.86
62725;BME280;49026;52.600;4.694;2023-09-19T07:39:54;100727.94;;;17.11;66.19
62725;BME280;49026;52.600;4.694;2023-09-19T07:42:22;100710.28;;;17.23;65.15
62725;BME280;49026;52.600;4.694;2023-09-19T07:44:47;100706.69;;;17.24;64.94
62725;BME280;49026;52.600;4.694;2023-09-19T07:47:16;100713.91;;;17.22;65.27
62725;BME280;49026;52.600;4.694;2023-09-19T07:49:41;100699.66;;;17.23;65.38
62725;BME280;49026;52.600;4.694;2023-09-19T07:52:08;100700.41;;;17.25;65.96
62725;BME280;49026;52.600;4.694;2023-09-19T07:54:36;100706.03;;;17.33;65.39
62725;BME280;49026;52.600;4.694;2023-09-19T07:57:02;100715.66;;;17.47;65.60
62725;BME280;49026;52.600;4.694;2023-09-19T07:59:30;100711.53;;;17.56;65.30
62725;BME280;49026;52.600;4.694;2023-09-19T08:01:57;100684.28;;;17.65;65.57
62725;BME280;49026;52.600;4.694;2023-09-19T08:04:23;100704.78;;;17.76;65.00
62725;BME280;49026;52.600;4.694;2023-09-19T08:06:51;100700.81;;;17.94;66.54
62725;BME280;49026;52.600;4.694;2023-09-19T08:09:17;100684.88;;;18.06;66.53
62725;BME280;49026;52.600;4.694;2023-09-19T08:11:46;100694.47;;;18.08;66.43
62725;BME280;49026;52.600;4.694;2023-09-19T08:14:14;100696.78;;;18.13;66.58
62725;BME280;49026;52.600;4.694;2023-09-19T08:16:39;100696.06;;;18.11;66.81
62725;BME280;49026;52.600;4.694;2023-09-19T08:19:05;100676.91;;;18.06;66.46
62725;BME280;49026;52.600;4.694;2023-09-19T08:21:33;100686.09;;;18.02;66.39
62725;BME280;49026;52.600;4.694;2023-09-19T08:23:58;100693.22;;;18.01;65.42
62725;BME280;49026;52.600;4.694;2023-09-19T08:26:23;100699.44;;;18.13;65.96
62725;BME280;49026;52.600;4.694;2023-09-19T08:28:50;100688.00;;;18.24;64.66
62725;BME280;49026;52.600;4.694;2023-09-19T08:31:16;100693.59;;;18.32;65.55
62725;BME280;49026;52.600;4.694;2023-09-19T08:33:42;100704.00;;;18.35;65.89
62725;BME280;49026;52.600;4.694;2023-09-19T08:36:09;100695.06;;;18.36;64.82
62725;BME280;49026;52.600;4.694;2023-09-19T08:38:35;100669.31;;;18.37;65.37
62725;BME280;49026;52.600;4.694;2023-09-19T08:41:04;100675.84;;;18.44;63.09
62725;BME280;49026;52.600;4.694;2023-09-19T08:43:30;100677.97;;;18.63;65.57
62725;BME280;49026;52.600;4.694;2023-09-19T08:46:07;100681.75;;;18.72;65.96
62725;BME280;49026;52.600;4.694;2023-09-19T08:48:34;100670.75;;;18.76;66.20
62725;BME280;49026;52.600;4.694;2023-09-19T08:51:08;100671.03;;;18.84;65.94
62725;BME280;49026;52.600;4.694;2023-09-19T08:56:12;100681.28;;;18.89;66.04
62725;BME280;49026;52.600;4.694;2023-09-19T08:58:54;100666.97;;;18.79;66.00
62725;BME280;49026;52.600;4.694;2023-09-19T09:01:29;100673.41;;;18.76;65.00
62725;BME280;49026;52.600;4.694;2023-09-19T09:03:58;100666.78;;;18.93;64.67
62725;BME280;49026;52.600;4.694;2023-09-19T09:06:25;100673.22;;;19.13;64.95
62725;BME280;49026;52.600;4.694;2023-09-19T09:08:56;100676.59;;;19.38;66.39
62725;BME280;49026;52.600;4.694;2023-09-19T09:11:22;100660.69;;;19.48;65.51
62725;BME280;49026;52.600;4.694;2023-09-19T09:13:49;100678.88;;;19.42;64.68
62725;BME280;49026;52.600;4.694;2023-09-19T09:16:15;100671.75;;;19.32;65.38
62725;BME280;49026;52.600;4.694;2023-09-19T09:18:44;100684.34;;;19.18;65.27
62725;BME280;49026;52.600;4.694;2023-09-19T09:21:10;100674.66;;;19.06;65.50
62725;BME280;49026;52.600;4.694;2023-09-19T09:23:36;100672.50;;;19.00;65.64
62725;BME280;49026;52.600;4.694;2023-09-19T09:26:01;100673.78;;;18.94;66.18
62725;BME280;49026;52.600;4.694;2023-09-19T09:28:31;100656.75;;;18.97;65.92
62725;BME280;49026;52.600;4.694;2023-09-19T09:30:58;100672.50;;;19.00;66.11
62725;BME280;49026;52.600;4.694;2023-09-19T09:33:24;100648.88;;;18.95;66.53
62725;BME280;49026;52.600;4.694;2023-09-19T09:35:53;100650.22;;;18.90;67.11
62725;BME280;49026;52.600;4.694;2023-09-19T09:38:25;100648.50;;;18.88;67.39
62725;BME280;49026;52.600;4.694;2023-09-19T09:40:53;100602.31;;;18.90;67.75
62725;BME280;49026;52.600;4.694;2023-09-19T09:43:26;100635.75;;;18.81;67.39
62725;BME280;49026;52.600;4.694;2023-09-19T09:46:09;100634.16;;;18.56;67.12
62725;BME280;49026;52.600;4.694;2023-09-19T09:49:09;100640.00;;;18.25;68.13
62725;BME280;49026;52.600;4.694;2023-09-19T09:52:01;100653.34;;;18.01;69.13
62725;BME280;49026;52.600;4.694;2023-09-19T09:54:33;100645.03;;;17.69;71.02
62725;BME280;49026;52.600;4.694;2023-09-19T09:57:05;100647.59;;;17.33;72.30
62725;BME280;49026;52.600;4.694;2023-09-19T09:59:53;100639.50;;;16.98;71.87
62725;BME280;49026;52.600;4.694;2023-09-19T10:02:26;100628.09;;;16.83;72.34
62725;BME280;49026;52.600;4.694;2023-09-19T10:04:57;100637.47;;;17.01;74.01
62725;BME280;49026;52.600;4.694;2023-09-19T10:07:50;100624.00;;;17.41;76.28
62725;BME280;49026;52.600;4.694;2023-09-19T10:10:40;100623.97;;;17.78;73.99
62725;BME280;49026;52.600;4.694;2023-09-19T10:13:07;100632.88;;;17.90;72.94
62725;BME280;49026;52.600;4.694;2023-09-19T10:15:36;100618.72;;;17.90;72.69
62725;BME280;49026;52.600;4.694;2023-09-19T10:18:07;100617.38;;;17.84;71.58
62725;BME280;49026;52.600;4.694;2023-09-19T10:20:36;100605.75;;;17.85;71.58
62725;BME280;49026;52.600;4.694;2023-09-19T10:23:10;100595.03;;;17.87;71.81
62725;BME280;49026;52.600;4.694;2023-09-19T10:25:42;100602.41;;;17.70;71.53
62725;BME280;49026;52.600;4.694;2023-09-19T10:28:12;100614.84;;;17.46;71.43
62725;BME280;49026;52.600;4.694;2023-09-19T10:30:41;100595.13;;;17.37;71.64
62725;BME280;49026;52.600;4.694;2023-09-19T10:33:10;100560.91;;;17.32;73.63
62725;BME280;49026;52.600;4.694;2023-09-19T10:35:38;100583.13;;;17.31;73.25
62725;BME280;49026;52.600;4.694;2023-09-19T10:38:09;100596.97;;;17.23;73.40
62725;BME280;49026;52.600;4.694;2023-09-19T10:40:36;100594.78;;;16.79;73.75
62725;BME280;49026;52.600;4.694;2023-09-19T10:43:06;100600.28;;;16.24;75.24
62725;BME280;49026;52.600;4.694;2023-09-19T10:45:33;100583.25;;;15.88;81.28
62725;BME280;49026;52.600;4.694;2023-09-19T10:48:02;100588.59;;;15.74;77.18
62725;BME280;49026;52.600;4.694;2023-09-19T10:50:35;100609.19;;;15.56;81.69
62725;BME280;49026;52.600;4.694;2023-09-19T10:53:04;100594.88;;;15.31;83.14
62725;BME280;49026;52.600;4.694;2023-09-19T10:55:33;100612.97;;;15.10;80.59
62725;BME280;49026;52.600;4.694;2023-09-19T10:58:00;100612.88;;;14.97;82.71
62725;BME280;49026;52.600;4.694;2023-09-19T11:00:57;100595.47;;;14.93;90.95
62725;BME280;49026;52.600;4.694;2023-09-19T11:03:30;100594.06;;;15.02;89.68
62725;BME280;49026;52.600;4.694;2023-09-19T11:06:02;100596.69;;;15.16;88.52
62725;BME280;49026;52.600;4.694;2023-09-19T11:08:54;100593.28;;;15.29;90.18
62725;BME280;49026;52.600;4.694;2023-09-19T11:28:29;100556.59;;;16.17;83.87
62725;BME280;49026;52.600;4.694;2023-09-19T11:30:56;100562.72;;;16.05;83.70
62725;BME280;49026;52.600;4.694;2023-09-19T11:36:06;100582.69;;;15.83;82.39
62725;BME280;49026;52.600;4.694;2023-09-19T11:43:47;100578.50;;;15.66;93.88
62725;BME280;49026;52.600;4.694;2023-09-19T11:46:13;100554.41;;;15.56;89.88
62725;BME280;49026;52.600;4.694;2023-09-19T11:48:42;100518.50;;;15.52;88.90
62725;BME280;49026;52.600;4.694;2023-09-19T11:51:13;100576.50;;;15.43;90.87
62725;BME280;49026;52.600;4.694;2023-09-19T11:54:00;100580.41;;;15.37;90.37
62725;BME280;49026;52.600;4.694;2023-09-19T11:56:27;100573.94;;;15.41;86.94
62725;BME280;49026;52.600;4.694;2023-09-19T11:58:59;100534.00;;;15.59;85.39
62725;BME280;49026;52.600;4.694;2023-09-19T12:01:32;100562.69;;;15.79;87.07
62725;BME280;49026;52.600;4.694;2023-09-19T12:04:01;100550.06;;;15.83;86.10
62725;BME280;49026;52.600;4.694;2023-09-19T12:06:28;100547.63;;;15.80;85.82
62725;BME280;49026;52.600;4.694;2023-09-19T12:08:58;100564.78;;;15.87;89.78
62725;BME280;49026;52.600;4.694;2023-09-19T12:11:30;100572.66;;;15.88;88.91
62725;BME280;49026;52.600;4.694;2023-09-19T12:14:01;100559.63;;;15.98;89.58
62725;BME280;49026;52.600;4.694;2023-09-19T12:16:29;100579.25;;;16.08;87.94
62725;BME280;49026;52.600;4.694;2023-09-19T12:18:56;100562.19;;;16.00;84.90
62725;BME280;49026;52.600;4.694;2023-09-19T12:21:31;100545.53;;;15.98;89.39
62725;BME280;49026;52.600;4.694;2023-09-19T12:26:30;100543.66;;;16.51;87.84
62725;BME280;49026;52.600;4.694;2023-09-19T12:28:59;100556.38;;;16.72;84.71
62725;BME280;49026;52.600;4.694;2023-09-19T12:31:26;100559.53;;;16.77;87.94
62725;BME280;49026;52.600;4.694;2023-09-19T12:34:01;100565.09;;;16.87;85.83
62725;BME280;49026;52.600;4.694;2023-09-19T12:36:26;100564.66;;;16.93;86.54
62725;BME280;49026;52.600;4.694;2023-09-19T12:38:58;100559.09;;;17.09;85.08
62725;BME280;49026;52.600;4.694;2023-09-19T12:41:24;100522.84;;;17.45;84.54
62725;BME280;49026;52.600;4.694;2023-09-19T12:43:51;100533.25;;;17.48;83.24
62725;BME280;49026;52.600;4.694;2023-09-19T12:46:22;100544.59;;;17.50;85.68
62725;BME280;49026;52.600;4.694;2023-09-19T12:49:16;100518.47;;;17.44;83.78
62725;BME280;49026;52.600;4.694;2023-09-19T12:51:45;100534.41;;;17.44;84.26
62725;BME280;49026;52.600;4.694;2023-09-19T12:54:10;100531.31;;;17.50;84.58
62725;BME280;49026;52.600;4.694;2023-09-19T12:56:45;100534.97;;;17.60;83.59
62725;BME280;49026;52.600;4.694;2023-09-19T12:59:13;100491.53;;;17.61;84.49
62725;BME280;49026;52.600;4.694;2023-09-19T13:01:40;100535.31;;;17.55;83.94
62725;BME280;49026;52.600;4.694;2023-09-19T13:04:19;100531.31;;;17.50;83.71
62725;BME280;49026;52.600;4.694;2023-09-19T13:06:50;100528.16;;;17.45;83.58
62725;BME280;49026;52.600;4.694;2023-09-19T13:09:16;100537.06;;;17.44;83.60
62725;BME280;49026;52.600;4.694;2023-09-19T13:11:43;100544.00;;;17.46;83.68
62725;BME280;49026;52.600;4.694;2023-09-19T13:14:24;100538.44;;;17.49;83.71
62725;BME280;49026;52.600;4.694;2023-09-19T13:19:47;100544.66;;;17.61;83.39
62725;BME280;49026;52.600;4.694;2023-09-19T13:22:42;100517.66;;;17.78;84.00
62725;BME280;49026;52.600;4.694;2023-09-19T13:25:09;100513.63;;;17.97;81.95
62725;BME280;49026;52.600;4.694;2023-09-19T13:27:44;100522.00;;;18.15;81.49
62725;BME280;49026;52.600;4.694;2023-09-19T13:30:14;100525.28;;;18.30;81.08
62725;BME280;49026;52.600;4.694;2023-09-19T13:32:40;100539.78;;;18.26;81.12
62725;BME280;49026;52.600;4.694;2023-09-19T13:35:08;100526.50;;;18.14;80.88
62725;BME280;49026;52.600;4.694;2023-09-19T13:37:34;100527.91;;;18.07;80.89
62725;BME280;49026;52.600;4.694;2023-09-19T13:40:12;100537.59;;;18.08;81.28
62725;BME280;49026;52.600;4.694;2023-09-19T13:42:43;100534.81;;;18.10;81.29
62725;BME280;49026;52.600;4.694;2023-09-19T13:45:09;100523.34;;;18.09;81.03
62725;BME280;49026;52.600;4.694;2023-09-19T13:47:38;100518.50;;;18.14;80.88